createdAt,value
2019-03-15T00:00:50.719Z,7.9
2019-03-15T00:01:52.283Z,7.9
2019-03-15T00:02:53.853Z,7.9
2019-03-15T00:03:55.251Z,7.9
2019-03-15T00:04:56.645Z,7.9
2019-03-15T00:05:58.271Z,7.9
2019-03-15T00:07:00.529Z,7.9
2019-03-15T00:08:02.077Z,7.7
2019-03-15T00:09:03.643Z,7.8
2019-03-15T00:10:05.375Z,7.9
2019-03-15T00:11:06.604Z,7.9
2019-03-15T00:12:08.143Z,7.9
2019-03-15T00:13:09.532Z,7.9
2019-03-15T00:14:11.212Z,7.9
2019-03-15T00:15:12.762Z,7.9
2019-03-15T00:16:14.312Z,7.9
2019-03-15T00:17:15.921Z,7.9
2019-03-15T00:18:17.510Z,7.2
2019-03-15T00:19:18.908Z,7.2
2019-03-15T00:20:20.312Z,7.3
2019-03-15T00:21:21.863Z,7.3
2019-03-15T00:22:23.125Z,7.4
2019-03-15T00:23:24.678Z,7.4
2019-03-15T00:24:26.247Z,7.4
2019-03-15T00:25:27.801Z,7.5
2019-03-15T00:26:29.358Z,7.5
2019-03-15T00:27:30.595Z,7.5
2019-03-15T00:28:32.001Z,7.5
2019-03-15T00:29:33.539Z,7.5
2019-03-15T00:30:34.927Z,7.5
2019-03-15T00:31:37.558Z,7.5
2019-03-15T00:32:39.023Z,7.5
2019-03-15T00:33:40.429Z,7.5
2019-03-15T00:34:43.340Z,7.5
2019-03-15T00:35:44.567Z,7.5
2019-03-15T00:36:46.065Z,7.5
2019-03-15T00:37:47.654Z,7.5
2019-03-15T00:38:49.151Z,7.4
2019-03-15T00:39:50.562Z,7.4
2019-03-15T00:40:52.131Z,7.4
2019-03-15T00:41:53.709Z,7.4
2019-03-15T00:42:55.250Z,7.4
2019-03-15T00:43:56.492Z,7.4
2019-03-15T00:44:58.066Z,7.4
2019-03-15T00:45:59.658Z,7.4
2019-03-15T00:47:00.943Z,7.4
2019-03-15T00:48:02.491Z,7.4
2019-03-15T00:49:03.739Z,7.3
2019-03-15T00:50:05.283Z,7.3
2019-03-15T00:51:06.841Z,7.3
2019-03-15T00:52:08.223Z,7.3
2019-03-15T00:53:09.816Z,7.3
2019-03-15T00:54:11.214Z,7.3
2019-03-15T00:55:12.615Z,7.3
2019-03-15T00:56:14.177Z,7.3
2019-03-15T00:57:15.567Z,7.3
2019-03-15T00:58:16.941Z,7.2
2019-03-15T00:59:18.411Z,7.2
2019-03-15T01:00:19.953Z,7.2
2019-03-15T01:01:22.011Z,7.2
2019-03-15T01:02:23.559Z,7.2
2019-03-15T01:03:24.801Z,7.2
2019-03-15T01:04:26.021Z,7.2
2019-03-15T01:05:27.293Z,7.2
2019-03-15T01:06:28.879Z,7.2
2019-03-15T01:07:30.433Z,7.2
2019-03-15T01:08:31.822Z,7.2
2019-03-15T01:09:33.199Z,7.2
2019-03-15T01:10:34.729Z,7.2
2019-03-15T01:11:36.139Z,7.2
2019-03-15T01:12:37.703Z,7.2
2019-03-15T01:13:39.319Z,7.2
2019-03-15T01:14:40.885Z,7.2
2019-03-15T01:15:43.098Z,7.2
2019-03-15T01:16:44.489Z,7.2
2019-03-15T01:17:45.903Z,7.2
2019-03-15T01:18:47.447Z,7.2
2019-03-15T01:19:48.852Z,7.2
2019-03-15T01:20:50.249Z,7.2
2019-03-15T01:21:51.793Z,7.2
2019-03-15T01:22:53.334Z,7.2
2019-03-15T01:23:54.884Z,7.3
2019-03-15T01:24:56.463Z,7.3
2019-03-15T01:25:58.015Z,7.3
2019-03-15T01:26:59.400Z,7.3
2019-03-15T01:28:00.941Z,7.3
2019-03-15T01:29:02.502Z,7.3
2019-03-15T01:30:04.042Z,7.3
2019-03-15T01:31:05.455Z,7.3
2019-03-15T01:32:06.542Z,7.3
2019-03-15T01:33:08.083Z,7.2
2019-03-15T01:34:09.545Z,7.2
2019-03-15T01:35:10.966Z,7.2
2019-03-15T01:36:12.532Z,7.3
2019-03-15T01:37:14.103Z,7.3
2019-03-15T01:38:15.485Z,7.3
2019-03-15T01:39:16.883Z,7.3
2019-03-15T01:40:18.293Z,7.3
2019-03-15T01:41:19.683Z,7.3
2019-03-15T01:42:21.601Z,7.3
2019-03-15T01:43:23.607Z,7.3
2019-03-15T01:44:25.178Z,7.4
2019-03-15T01:45:26.584Z,7.4
2019-03-15T01:46:27.974Z,7.4
2019-03-15T01:47:29.519Z,7.4
2019-03-15T01:48:30.816Z,7.3
2019-03-15T01:49:33.147Z,7.3
2019-03-15T01:50:35.298Z,7.3
2019-03-15T01:51:36.537Z,7.3
2019-03-15T01:52:37.782Z,7.3
2019-03-15T01:53:39.181Z,7.3
2019-03-15T01:54:40.413Z,7.3
2019-03-15T01:55:41.969Z,7.3
2019-03-15T01:56:43.400Z,7.3
2019-03-15T01:57:44.954Z,7.3
2019-03-15T01:58:46.502Z,7.3
2019-03-15T01:59:49.050Z,7.3
2019-03-15T02:00:50.459Z,7.3
2019-03-15T02:01:51.862Z,7.3
2019-03-15T02:02:53.429Z,7.3
2019-03-15T02:03:55.026Z,7.3
2019-03-15T02:04:57.610Z,7.3
2019-03-15T02:05:59.241Z,7.3
2019-03-15T02:07:00.789Z,7.3
2019-03-15T02:08:02.233Z,7.3
2019-03-15T02:09:03.783Z,7.2
2019-03-15T02:10:05.267Z,7.2
2019-03-15T02:11:06.679Z,7.2
2019-03-15T02:12:07.921Z,7.1
2019-03-15T02:13:09.465Z,7.2
2019-03-15T02:14:11.002Z,7.2
2019-03-15T02:15:12.244Z,7.2
2019-03-15T02:16:13.803Z,7.2
2019-03-15T02:17:15.492Z,7.2
2019-03-15T02:18:17.057Z,7.2
2019-03-15T02:19:18.653Z,7.2
2019-03-15T02:20:20.195Z,7.2
2019-03-15T02:21:21.440Z,7.2
2019-03-15T02:22:22.847Z,7.1
2019-03-15T02:23:25.070Z,7.1
2019-03-15T02:24:26.475Z,7.1
2019-03-15T02:25:28.745Z,7.1
2019-03-15T02:26:30.135Z,7.1
2019-03-15T02:27:31.522Z,7.1
2019-03-15T02:28:32.897Z,7.1
2019-03-15T02:29:34.441Z,7.1
2019-03-15T02:30:36.205Z,7.1
2019-03-15T02:31:37.514Z,7.1
2019-03-15T02:32:41.197Z,7.1
2019-03-15T02:33:42.419Z,7.1
2019-03-15T02:34:43.826Z,7.1
2019-03-15T02:35:47.453Z,7.1
2019-03-15T02:36:48.872Z,7.1
2019-03-15T02:37:50.430Z,7.1
2019-03-15T02:38:51.999Z,7.1
2019-03-15T02:39:53.535Z,7.1
2019-03-15T02:40:54.944Z,7.1
2019-03-15T02:41:56.792Z,7.1
2019-03-15T02:42:58.193Z,7.1
2019-03-15T02:43:59.639Z,7.1
2019-03-15T02:45:01.394Z,7.1
2019-03-15T02:46:02.976Z,7.1
2019-03-15T02:47:04.422Z,7.1
2019-03-15T02:48:06.004Z,7.1
2019-03-15T02:49:09.599Z,7.2
2019-03-15T02:50:11.157Z,7.2
2019-03-15T02:51:12.554Z,7.2
2019-03-15T02:52:14.068Z,7.2
2019-03-15T02:53:15.616Z,7.2
2019-03-15T02:54:17.172Z,7.2
2019-03-15T02:55:18.757Z,7.2
2019-03-15T02:56:20.306Z,7.2
2019-03-15T02:57:21.711Z,7.2
2019-03-15T02:58:23.299Z,7.2
2019-03-15T02:59:24.865Z,7.2
2019-03-15T03:00:26.814Z,7.2
2019-03-15T03:01:28.381Z,7.2
2019-03-15T03:02:29.983Z,7.2
2019-03-15T03:03:31.373Z,7.2
2019-03-15T03:04:32.921Z,7.2
2019-03-15T03:05:35.633Z,7.2
2019-03-15T03:06:37.212Z,7.2
2019-03-15T03:07:38.492Z,7.3
2019-03-15T03:08:42.273Z,7.3
2019-03-15T03:09:43.808Z,7.3
2019-03-15T03:10:45.264Z,7.3
2019-03-15T03:11:47.237Z,7.4
2019-03-15T03:12:48.838Z,7.4
2019-03-15T03:13:50.392Z,7.5
2019-03-15T03:14:52.360Z,7.4
2019-03-15T03:15:54.155Z,7.5
2019-03-15T03:16:55.713Z,7.5
2019-03-15T03:17:57.013Z,7.6
2019-03-15T03:18:58.666Z,7.6
2019-03-15T03:20:00.395Z,7.6
2019-03-15T03:21:02.314Z,7.6
2019-03-15T03:22:03.455Z,7.6
2019-03-15T03:23:05.569Z,7.7
2019-03-15T03:24:07.144Z,7.7
2019-03-15T03:25:08.710Z,7.7
2019-03-15T03:26:10.146Z,7.7
2019-03-15T03:27:11.735Z,7.7
2019-03-15T03:28:13.125Z,7.7
2019-03-15T03:29:14.551Z,7.8
2019-03-15T03:30:18.592Z,7.8
2019-03-15T03:31:20.240Z,7.7
2019-03-15T03:32:21.533Z,7.8
2019-03-15T03:33:23.450Z,7.7
2019-03-15T03:34:24.898Z,7.8
2019-03-15T03:35:26.354Z,7.8
2019-03-15T03:36:27.787Z,7.8
2019-03-15T03:37:29.185Z,7.8
2019-03-15T03:38:30.823Z,7.8
2019-03-15T03:39:32.254Z,7.8
2019-03-15T03:40:34.112Z,7.8
2019-03-15T03:41:35.541Z,7.8
2019-03-15T03:42:37.133Z,7.8
2019-03-15T03:43:38.731Z,7.7
2019-03-15T03:44:40.102Z,7.7
2019-03-15T03:45:41.503Z,7.7
2019-03-15T03:46:42.861Z,7.7
2019-03-15T03:47:45.034Z,7.7
2019-03-15T03:48:46.465Z,7.8
2019-03-15T03:49:48.018Z,7.8
2019-03-15T03:50:49.406Z,7.8
2019-03-15T03:51:50.889Z,7.8
2019-03-15T03:52:52.431Z,7.8
2019-03-15T03:53:53.819Z,7.8
2019-03-15T03:54:55.222Z,7.8
2019-03-15T03:55:56.617Z,7.8
2019-03-15T03:56:58.260Z,7.7
2019-03-15T03:57:59.643Z,7.7
2019-03-15T03:59:00.884Z,7.7
2019-03-15T04:00:02.507Z,7.7
2019-03-15T04:01:07.227Z,7.7
2019-03-15T04:02:09.305Z,7.8
2019-03-15T04:03:10.894Z,7.8
2019-03-15T04:04:12.313Z,7.8
2019-03-15T04:05:13.862Z,7.8
2019-03-15T04:06:15.233Z,7.8
2019-03-15T04:07:16.650Z,7.8
2019-03-15T04:08:18.038Z,7.8
2019-03-15T04:09:19.664Z,7.8
2019-03-15T04:10:20.925Z,7.8
2019-03-15T04:11:22.749Z,7.7
2019-03-15T04:12:24.532Z,7.7
2019-03-15T04:13:26.100Z,7.6
2019-03-15T04:14:27.722Z,7.5
2019-03-15T04:15:29.138Z,7.4
2019-03-15T04:16:30.532Z,7.2
2019-03-15T04:17:31.923Z,7.1
2019-03-15T04:18:33.474Z,7.1
2019-03-15T04:19:34.720Z,7.1
2019-03-15T04:20:36.288Z,7.1
2019-03-15T04:21:37.823Z,7.1
2019-03-15T04:22:39.288Z,7.1
2019-03-15T04:23:40.856Z,7.1
2019-03-15T04:24:42.392Z,7.1
2019-03-15T04:25:43.939Z,7.1
2019-03-15T04:26:45.484Z,7.1
2019-03-15T04:27:46.736Z,7.1
2019-03-15T04:28:48.574Z,7.1
2019-03-15T04:29:50.124Z,7.1
2019-03-15T04:30:51.353Z,7.2
2019-03-15T04:31:52.882Z,7.2
2019-03-15T04:32:54.282Z,7.1
2019-03-15T04:33:55.964Z,7.2
2019-03-15T04:34:57.412Z,7.2
2019-03-15T04:35:59.012Z,7.2
2019-03-15T04:37:00.606Z,7.2
2019-03-15T04:38:02.361Z,7.2
2019-03-15T04:39:03.774Z,7.3
2019-03-15T04:40:05.339Z,7.3
2019-03-15T04:41:06.982Z,7.4
2019-03-15T04:42:08.683Z,7.5
2019-03-15T04:43:10.071Z,7.6
2019-03-15T04:44:11.688Z,7.7
2019-03-15T04:45:13.071Z,7.8
2019-03-15T04:46:14.648Z,7.9
2019-03-15T04:47:16.207Z,7.9
2019-03-15T04:48:17.608Z,7.3
2019-03-15T04:49:19.162Z,7.4
2019-03-15T04:50:20.708Z,7.6
2019-03-15T04:51:22.284Z,7.7
2019-03-15T04:52:23.673Z,7.8
2019-03-15T04:53:24.907Z,7.9
2019-03-15T04:54:26.481Z,7.8
2019-03-15T04:55:27.734Z,7.9
2019-03-15T04:56:29.138Z,7.9
2019-03-15T04:57:30.522Z,7.9
2019-03-15T04:58:31.751Z,7.7
2019-03-15T04:59:33.152Z,7.8
2019-03-15T05:00:34.520Z,7.9
2019-03-15T05:01:35.910Z,7.7
2019-03-15T05:02:37.454Z,7.8
2019-03-15T05:03:39.014Z,7.9
2019-03-15T05:04:40.396Z,7.1
2019-03-15T05:05:41.791Z,7.3
2019-03-15T05:06:43.182Z,7.4
2019-03-15T05:07:44.568Z,7.5
2019-03-15T05:08:46.127Z,7.6
2019-03-15T05:09:47.669Z,7.7
2019-03-15T05:10:49.212Z,7.7
2019-03-15T05:11:50.770Z,7.8
2019-03-15T05:12:52.311Z,7.9
2019-03-15T05:13:53.714Z,7.9
2019-03-15T05:14:55.130Z,7.9
2019-03-15T05:15:56.706Z,7.9
2019-03-15T05:16:57.939Z,7.9
2019-03-15T05:17:59.492Z,7.9
2019-03-15T05:19:00.724Z,7.9
2019-03-15T05:20:02.122Z,7.8
2019-03-15T05:21:03.794Z,7.8
2019-03-15T05:22:05.380Z,7.8
2019-03-15T05:23:06.866Z,7.8
2019-03-15T05:24:08.406Z,7.9
2019-03-15T05:25:09.812Z,7.9
2019-03-15T05:26:11.368Z,7.9
2019-03-15T05:27:13.074Z,7.9
2019-03-15T05:28:14.702Z,7.8
2019-03-15T05:29:16.240Z,7.8
2019-03-15T05:30:17.626Z,7.8
2019-03-15T05:31:19.173Z,7.8
2019-03-15T05:32:20.559Z,7.8
2019-03-15T05:33:22.168Z,7.8
2019-03-15T05:34:23.552Z,7.8
2019-03-15T05:35:25.095Z,7.8
2019-03-15T05:36:26.489Z,7.8
2019-03-15T05:37:28.044Z,7.8
2019-03-15T05:38:29.439Z,7.7
2019-03-15T05:39:30.980Z,7.7
2019-03-15T05:40:32.603Z,7.7
2019-03-15T05:41:34.158Z,7.6
2019-03-15T05:42:35.390Z,7.6
2019-03-15T05:43:36.948Z,7.6
2019-03-15T05:44:38.327Z,7.7
2019-03-15T05:45:39.722Z,7.6
2019-03-15T05:46:41.122Z,7.7
2019-03-15T05:47:42.531Z,7.7
2019-03-15T05:48:44.212Z,7.7
2019-03-15T05:49:45.607Z,7.7
2019-03-15T05:50:47.166Z,7.7
2019-03-15T05:51:48.710Z,7.7
2019-03-15T05:52:50.253Z,7.7
2019-03-15T05:53:51.812Z,7.7
2019-03-15T05:54:53.414Z,7.7
2019-03-15T05:55:54.969Z,7.8
2019-03-15T05:56:56.224Z,7.8
2019-03-15T05:57:57.781Z,7.9
2019-03-15T05:58:58.910Z,7.9
2019-03-15T06:00:00.703Z,7.9
2019-03-15T06:01:02.487Z,7.9
2019-03-15T06:02:04.077Z,7.8
2019-03-15T06:03:05.334Z,7.8
2019-03-15T06:04:06.913Z,7.7
2019-03-15T06:05:10.598Z,7.6
2019-03-15T06:06:12.010Z,7.5
2019-03-15T06:07:13.398Z,7.4
2019-03-15T06:08:14.667Z,7.3
2019-03-15T06:09:16.245Z,7.2
2019-03-15T06:10:17.475Z,7.2
2019-03-15T06:11:19.081Z,7.2
2019-03-15T06:12:20.655Z,7.2
2019-03-15T06:13:22.183Z,7.1
2019-03-15T06:14:23.586Z,7.2
2019-03-15T06:15:25.157Z,7.2
2019-03-15T06:16:26.610Z,7.1
2019-03-15T06:17:28.152Z,7.1
2019-03-15T06:18:29.524Z,7.1
2019-03-15T06:19:31.087Z,7.1
2019-03-15T06:20:32.649Z,7.1
2019-03-15T06:21:34.197Z,7.2
2019-03-15T06:22:35.741Z,7.2
2019-03-15T06:23:37.316Z,7.1
2019-03-15T06:24:38.862Z,7.2
2019-03-15T06:25:40.434Z,7.2
2019-03-15T06:26:41.830Z,7.2
2019-03-15T06:27:43.404Z,7.2
2019-03-15T06:28:44.977Z,7.2
2019-03-15T06:29:46.541Z,7.2
2019-03-15T06:30:48.086Z,7.2
2019-03-15T06:31:49.496Z,7.2
2019-03-15T06:32:51.125Z,7.2
2019-03-15T06:33:52.499Z,7.3
2019-03-15T06:34:54.035Z,7.3
2019-03-15T06:35:55.593Z,7.4
2019-03-15T06:36:57.359Z,7.4
2019-03-15T06:37:59.033Z,7.5
2019-03-15T06:39:00.655Z,7.7
2019-03-15T06:40:03.274Z,7.8
2019-03-15T06:41:04.829Z,7.9
2019-03-15T06:42:06.231Z,7.8
2019-03-15T06:43:07.812Z,7.9
2019-03-15T06:44:09.377Z,7.9
2019-03-15T06:45:10.952Z,7.9
2019-03-15T06:46:12.519Z,7.9
2019-03-15T06:47:13.928Z,7.9
2019-03-15T06:48:15.363Z,7.9
2019-03-15T06:49:18.267Z,7.9
2019-03-15T06:50:19.812Z,7.9
2019-03-15T06:51:21.367Z,7.9
2019-03-15T06:52:22.962Z,7.9
2019-03-15T06:53:24.522Z,7.9
2019-03-15T06:54:25.929Z,7.2
2019-03-15T06:55:27.339Z,7.3
2019-03-15T06:56:28.610Z,7.4
2019-03-15T06:57:30.044Z,7.5
2019-03-15T06:58:31.605Z,7.6
2019-03-15T06:59:33.199Z,7.7
2019-03-15T07:00:34.750Z,7.8
2019-03-15T07:01:36.331Z,7.9
2019-03-15T07:02:37.606Z,7.9
2019-03-15T07:03:38.853Z,7.9
2019-03-15T07:04:40.265Z,7.9
2019-03-15T07:05:41.479Z,7.9
2019-03-15T07:06:44.252Z,7.9
2019-03-15T07:07:47.020Z,7.9
2019-03-15T07:08:48.584Z,7.9
2019-03-15T07:09:50.145Z,7.9
2019-03-15T07:10:51.705Z,7.9
2019-03-15T07:11:53.275Z,7.9
2019-03-15T07:12:54.677Z,7.9
2019-03-15T07:13:56.243Z,7.9
2019-03-15T07:14:57.820Z,7.9
2019-03-15T07:15:59.217Z,7.9
2019-03-15T07:17:00.769Z,7.9
2019-03-15T07:18:02.459Z,7.9
2019-03-15T07:19:04.541Z,7.9
2019-03-15T07:20:06.080Z,7.9
2019-03-15T07:21:07.331Z,7.9
2019-03-15T07:22:08.749Z,7.9
2019-03-15T07:23:10.319Z,7.9
2019-03-15T07:24:26.671Z,7.9
2019-03-15T07:25:28.099Z,7.8
2019-03-15T07:26:29.656Z,7.8
2019-03-15T07:27:31.216Z,7.8
2019-03-15T07:28:32.641Z,7.9
2019-03-15T07:29:34.213Z,7.9
2019-03-15T07:30:35.772Z,7.9
2019-03-15T07:31:37.327Z,7.9
2019-03-15T07:32:38.610Z,7.9
2019-03-15T07:33:40.177Z,7.9
2019-03-15T07:34:43.064Z,7.9
2019-03-15T07:35:44.479Z,7.9
2019-03-15T07:36:45.735Z,7.8
2019-03-15T07:37:48.928Z,7.8
2019-03-15T07:38:50.465Z,7.7
2019-03-15T07:39:52.019Z,7.7
2019-03-15T07:40:53.418Z,7.6
2019-03-15T07:41:54.990Z,7.5
2019-03-15T07:42:59.351Z,7.4
2019-03-15T07:44:03.630Z,7.3
2019-03-15T07:45:05.222Z,7.2
2019-03-15T07:46:06.616Z,7.2
2019-03-15T07:47:08.013Z,7.2
2019-03-15T07:48:27.715Z,7.1
2019-03-15T07:49:29.285Z,7.1
2019-03-15T07:50:30.969Z,7.2
2019-03-15T07:51:32.419Z,7.2
2019-03-15T07:52:34.009Z,7.2
2019-03-15T07:53:37.061Z,7.1
2019-03-15T07:54:39.949Z,7.1
2019-03-15T07:55:41.506Z,7.1
2019-03-15T07:56:43.087Z,7.1
2019-03-15T07:57:44.719Z,7.1
2019-03-15T07:58:46.270Z,7.1
2019-03-15T07:59:47.687Z,7.2
2019-03-15T08:00:49.231Z,7.1
2019-03-15T08:01:54.258Z,7.1
2019-03-15T08:02:55.685Z,7.1
2019-03-15T08:03:57.070Z,7.2
2019-03-15T08:04:58.696Z,7.2
2019-03-15T08:06:00.135Z,7.2
2019-03-15T08:07:01.527Z,7.2
2019-03-15T08:08:03.093Z,7.2
2019-03-15T08:09:04.475Z,7.2
2019-03-15T08:10:06.030Z,7.3
2019-03-15T08:11:07.124Z,7.3
2019-03-15T08:12:08.692Z,7.4
2019-03-15T08:13:09.929Z,7.5
2019-03-15T08:14:11.478Z,7.5
2019-03-15T08:15:13.110Z,7.6
2019-03-15T08:16:14.677Z,7.7
2019-03-15T08:17:16.090Z,7.8
2019-03-15T08:18:17.660Z,7.8
2019-03-15T08:19:19.199Z,7.9
2019-03-15T08:20:20.787Z,7.9
2019-03-15T08:21:24.352Z,7.8
2019-03-15T08:22:25.598Z,7.9
2019-03-15T08:23:27.017Z,7.9
2019-03-15T08:24:28.622Z,7.9
2019-03-15T08:25:29.856Z,7.9
2019-03-15T08:26:31.970Z,7.9
2019-03-15T08:27:33.358Z,7.9
2019-03-15T08:28:34.820Z,7.9
2019-03-15T08:29:36.442Z,7.9
2019-03-15T08:30:37.999Z,7.9
2019-03-15T08:31:39.656Z,7.9
2019-03-15T08:32:45.466Z,7.9
2019-03-15T08:33:47.008Z,7.9
2019-03-15T08:34:48.310Z,7.9
2019-03-15T08:35:49.988Z,7.9
2019-03-15T08:36:51.552Z,7.9
2019-03-15T08:37:53.145Z,7.9
2019-03-15T08:38:54.718Z,7.8
2019-03-15T08:39:56.111Z,7.8
2019-03-15T08:40:57.680Z,7.8
2019-03-15T08:41:59.256Z,7.8
2019-03-15T08:43:00.495Z,7.8
2019-03-15T08:44:02.063Z,7.9
2019-03-15T08:45:03.478Z,7.9
2019-03-15T08:46:05.077Z,7.9
2019-03-15T08:47:06.632Z,7.9
2019-03-15T08:48:08.043Z,7.9
2019-03-15T08:49:09.475Z,7.9
2019-03-15T08:50:14.455Z,7.9
2019-03-15T08:51:16.605Z,7.9
2019-03-15T08:52:18.022Z,7.9
2019-03-15T08:53:19.634Z,7.8
2019-03-15T08:54:21.043Z,7.8
2019-03-15T08:55:22.441Z,7.9
2019-03-15T08:56:23.853Z,7.9
2019-03-15T08:57:25.410Z,7.9
2019-03-15T08:58:26.967Z,7.5
2019-03-15T08:59:28.194Z,7.7
2019-03-15T09:00:29.769Z,7.9
2019-03-15T09:01:31.026Z,7.9
2019-03-15T09:02:32.592Z,7.9
2019-03-15T09:03:35.987Z,7.6
2019-03-15T09:04:37.583Z,7.8
2019-03-15T09:05:38.987Z,7.9
2019-03-15T09:06:42.665Z,7.6
2019-03-15T09:07:43.744Z,7.8
2019-03-15T09:08:45.158Z,7.3
2019-03-15T09:09:46.538Z,7.5
2019-03-15T09:10:47.612Z,7.8
2019-03-15T09:11:49.001Z,7.9
2019-03-15T09:12:50.400Z,7.2
2019-03-15T09:13:51.827Z,7.4
2019-03-15T09:14:53.225Z,7.5
2019-03-15T09:15:54.800Z,7.6
2019-03-15T09:16:56.345Z,7.7
2019-03-15T09:17:57.968Z,7.7
2019-03-15T09:18:59.514Z,7.6
2019-03-15T09:20:01.142Z,7.5
2019-03-15T09:21:02.702Z,7.4
2019-03-15T09:22:04.091Z,7.3
2019-03-15T09:23:05.689Z,7.2
2019-03-15T09:24:07.260Z,7.2
2019-03-15T09:25:22.013Z,7.2
2019-03-15T09:26:23.598Z,7.1
2019-03-15T09:27:25.162Z,7.1
2019-03-15T09:29:42.799Z,7.1
2019-03-15T09:30:44.191Z,7.1
2019-03-15T09:31:49.837Z,7.1
2019-03-15T09:32:51.396Z,7.1
2019-03-15T09:33:52.952Z,7.1
2019-03-15T09:34:57.188Z,7.2
2019-03-15T09:35:58.757Z,7.2
2019-03-15T09:36:59.856Z,7.2
2019-03-15T09:38:01.350Z,7.2
2019-03-15T09:39:02.907Z,7.2
2019-03-15T09:40:04.153Z,7.2
2019-03-15T09:41:05.719Z,7.3
2019-03-15T09:42:06.960Z,7.3
2019-03-15T09:43:08.367Z,7.4
2019-03-15T09:44:09.959Z,7.5
2019-03-15T09:45:11.537Z,7.5
2019-03-15T09:46:13.256Z,7.7
2019-03-15T09:47:14.544Z,7.8
2019-03-15T09:48:16.088Z,7.9
2019-03-15T09:49:17.634Z,7.9
2019-03-15T09:50:52.597Z,7.3
2019-03-15T09:51:54.245Z,7.5
2019-03-15T09:52:55.685Z,7.7
2019-03-15T09:53:57.245Z,7.8
2019-03-15T09:54:58.812Z,7.9
2019-03-15T09:56:00.364Z,7.9
2019-03-15T09:57:01.916Z,7.9
2019-03-15T09:58:03.485Z,7.9
2019-03-15T09:59:04.875Z,7.9
2019-03-15T10:00:06.421Z,7.9
2019-03-15T10:01:10.590Z,7.9
2019-03-15T10:02:12.191Z,7.9
2019-03-15T10:03:23.951Z,7.9
2019-03-15T10:04:25.361Z,7.9
2019-03-15T10:05:26.804Z,7.3
2019-03-15T10:06:28.385Z,7.4
2019-03-15T10:07:45.217Z,7.5
2019-03-15T10:08:46.790Z,7.5
2019-03-15T10:09:48.215Z,7.6
2019-03-15T10:10:50.850Z,7.7
2019-03-15T10:11:52.260Z,7.7
2019-03-15T10:13:07.729Z,7.8
2019-03-15T10:14:09.282Z,7.8
2019-03-15T10:15:10.686Z,7.8
2019-03-15T10:16:12.255Z,7.9
2019-03-15T10:17:13.650Z,7.9
2019-03-15T10:18:15.206Z,7.9
2019-03-15T10:19:16.769Z,7.9
2019-03-15T10:20:18.166Z,7.9
2019-03-15T10:21:19.742Z,7.9
2019-03-15T10:22:21.295Z,7.9
2019-03-15T10:23:22.684Z,7.9
2019-03-15T10:24:24.246Z,7.9
2019-03-15T10:25:25.654Z,7.9
2019-03-15T10:26:27.055Z,7.9
2019-03-15T10:27:28.606Z,7.9
2019-03-15T10:28:30.018Z,7.9
2019-03-15T10:29:31.446Z,7.9
2019-03-15T10:30:32.843Z,7.9
2019-03-15T10:31:34.424Z,7.9
2019-03-15T10:32:35.655Z,7.9
2019-03-15T10:33:51.937Z,7.9
2019-03-15T10:34:53.500Z,7.9
2019-03-15T10:35:55.033Z,7.9
2019-03-15T10:36:56.612Z,7.9
2019-03-15T10:37:58.019Z,7.9
2019-03-15T10:38:59.430Z,7.9
2019-03-15T10:40:01.255Z,7.9
2019-03-15T10:41:03.040Z,7.9
2019-03-15T10:42:04.595Z,7.8
2019-03-15T10:43:06.011Z,7.8
2019-03-15T10:44:07.398Z,7.8
2019-03-15T10:45:08.823Z,7.8
2019-03-15T10:46:10.441Z,7.8
2019-03-15T10:47:11.842Z,7.8
2019-03-15T10:48:26.878Z,7.8
2019-03-15T10:49:31.980Z,7.8
2019-03-15T10:50:33.525Z,7.8
2019-03-15T10:51:34.897Z,7.9
2019-03-15T10:52:36.447Z,7.9
2019-03-15T10:53:37.731Z,7.9
2019-03-15T10:54:39.297Z,7.9
2019-03-15T10:55:40.833Z,7.2
2019-03-15T10:56:42.386Z,7.3
2019-03-15T10:57:43.941Z,7.4
2019-03-15T10:58:45.620Z,7.4
2019-03-15T10:59:47.018Z,7.3
2019-03-15T11:00:48.540Z,7.2
2019-03-15T11:01:49.785Z,7.2
2019-03-15T11:02:51.188Z,7.1
2019-03-15T11:03:52.594Z,7.1
2019-03-15T11:04:54.120Z,7.1
2019-03-15T11:05:55.512Z,7.1
2019-03-15T11:06:56.905Z,7.1
2019-03-15T11:07:58.142Z,7.1
2019-03-15T11:08:59.584Z,7.1
2019-03-15T11:10:01.365Z,7.1
2019-03-15T11:11:02.742Z,7.1
2019-03-15T11:12:04.322Z,7.1
2019-03-15T11:13:05.712Z,7.1
2019-03-15T11:14:07.315Z,7.1
2019-03-15T11:15:08.558Z,7.1
2019-03-15T11:16:10.103Z,7.1
2019-03-15T11:17:11.367Z,7.1
2019-03-15T11:18:12.629Z,7.1
2019-03-15T11:19:17.201Z,7.1
2019-03-15T11:20:18.622Z,7.2
2019-03-15T11:21:19.714Z,7.2
2019-03-15T11:22:21.280Z,7.2
2019-03-15T11:23:22.820Z,7.2
2019-03-15T11:24:24.242Z,7.2
2019-03-15T11:25:25.488Z,7.2
2019-03-15T11:26:26.718Z,7.2
2019-03-15T11:27:28.127Z,7.2
2019-03-15T11:28:29.667Z,7.3
2019-03-15T11:29:31.214Z,7.3
2019-03-15T11:30:32.755Z,7.4
2019-03-15T11:31:34.152Z,7.5
2019-03-15T11:32:35.707Z,7.6
2019-03-15T11:33:37.373Z,7.7
2019-03-15T11:34:38.936Z,7.9
2019-03-15T11:35:40.160Z,7.9
2019-03-15T11:36:41.704Z,7.9
2019-03-15T11:37:43.262Z,7.9
2019-03-15T11:38:44.674Z,7.8
2019-03-15T11:39:46.092Z,7.9
2019-03-15T11:40:47.644Z,7.9
2019-03-15T11:41:49.027Z,7.9
2019-03-15T11:42:50.255Z,7.9
2019-03-15T11:43:51.658Z,7.9
2019-03-15T11:44:53.214Z,7.9
2019-03-15T11:45:54.754Z,7.9
2019-03-15T11:46:56.365Z,7.9
2019-03-15T11:48:09.245Z,7.9
2019-03-15T11:49:10.818Z,7.9
2019-03-15T11:50:12.074Z,7.9
2019-03-15T11:51:13.477Z,7.9
2019-03-15T11:52:14.720Z,7.9
2019-03-15T11:53:19.742Z,7.9
2019-03-15T11:54:20.880Z,7.9
2019-03-15T11:55:22.441Z,7.9
2019-03-15T11:56:28.827Z,7.9
2019-03-15T11:57:30.265Z,7.9
2019-03-15T11:58:31.800Z,7.9
2019-03-15T11:59:36.936Z,7.9
2019-03-15T12:00:38.344Z,7.9
2019-03-15T12:01:39.914Z,7.9
2019-03-15T12:02:41.329Z,7.8
2019-03-15T12:03:54.799Z,7.8
2019-03-15T12:04:56.380Z,7.8
2019-03-15T12:05:57.944Z,7.8
2019-03-15T12:06:59.515Z,7.8
2019-03-15T12:08:01.089Z,7.8
2019-03-15T12:09:02.671Z,7.8
2019-03-15T12:10:04.319Z,7.8
2019-03-15T12:11:05.892Z,7.7
2019-03-15T12:12:07.298Z,7.7
2019-03-15T12:13:08.714Z,7.6
2019-03-15T12:14:10.267Z,7.5
2019-03-15T12:15:11.808Z,7.4
2019-03-15T12:16:13.042Z,7.3
2019-03-15T12:17:14.608Z,7.2
2019-03-15T12:18:16.155Z,7.2
2019-03-15T12:19:17.588Z,7.2
2019-03-15T12:20:19.156Z,7.2
2019-03-15T12:21:20.718Z,7.2
2019-03-15T12:22:22.269Z,7.2
2019-03-15T12:23:23.810Z,7.2
2019-03-15T12:24:25.452Z,7.2
2019-03-15T12:25:27.046Z,7.2
2019-03-15T12:26:41.932Z,7.2
2019-03-15T12:27:43.564Z,7.2
2019-03-15T12:28:45.129Z,7.2
2019-03-15T12:29:46.387Z,7.2
2019-03-15T12:30:47.943Z,7.2
2019-03-15T12:31:49.370Z,7.2
2019-03-15T12:32:50.938Z,7.2
2019-03-15T12:33:52.345Z,7.2
2019-03-15T12:34:53.776Z,7.2
2019-03-15T12:35:55.343Z,7.2
2019-03-15T12:36:56.737Z,7.2
2019-03-15T12:37:58.294Z,7.3
2019-03-15T12:39:00.151Z,7.3
2019-03-15T12:40:01.931Z,7.3
2019-03-15T12:41:03.356Z,7.2
2019-03-15T12:42:04.664Z,7.2
2019-03-15T12:43:06.232Z,7.2
2019-03-15T12:44:11.102Z,7.2
2019-03-15T12:45:12.738Z,7.1
2019-03-15T12:46:14.130Z,7.2
2019-03-15T12:47:15.684Z,7.1
2019-03-15T12:48:16.943Z,7.1
2019-03-15T12:49:18.165Z,7.1
2019-03-15T12:50:19.552Z,7.1
2019-03-15T12:51:34.033Z,7.1
2019-03-15T12:52:50.062Z,7.1
2019-03-15T12:53:51.461Z,7.1
2019-03-15T12:54:52.860Z,7.1
2019-03-15T12:55:54.111Z,7.1
2019-03-15T12:56:55.492Z,7.1
2019-03-15T12:57:57.038Z,7.1
2019-03-15T12:58:58.466Z,7.1
2019-03-15T13:00:00.039Z,7.2
2019-03-15T13:01:01.440Z,7.1
2019-03-15T13:02:03.040Z,7.1
2019-03-15T13:03:04.467Z,7.1
2019-03-15T13:04:05.868Z,7.2
2019-03-15T13:05:07.270Z,7.2
2019-03-15T13:06:08.827Z,7.2
2019-03-15T13:07:10.486Z,7.2
2019-03-15T13:08:12.053Z,7.2
2019-03-15T13:09:13.459Z,7.2
2019-03-15T13:10:14.872Z,7.2
2019-03-15T13:11:16.446Z,7.2
2019-03-15T13:12:17.965Z,7.3
2019-03-15T13:13:19.409Z,7.3
2019-03-15T13:14:20.804Z,7.4
2019-03-15T13:15:22.352Z,7.4
2019-03-15T13:16:23.743Z,7.5
2019-03-15T13:17:25.429Z,7.6
2019-03-15T13:18:26.980Z,7.6
2019-03-15T13:19:28.381Z,7.7
2019-03-15T13:20:29.778Z,7.7
2019-03-15T13:21:31.226Z,7.8
2019-03-15T13:22:32.819Z,7.8
2019-03-15T13:23:34.430Z,7.9
2019-03-15T13:24:36.036Z,7.9
2019-03-15T13:25:37.579Z,7.9
2019-03-15T13:26:38.975Z,7.9
2019-03-15T13:27:40.636Z,7.7
2019-03-15T13:28:42.169Z,7.8
2019-03-15T13:29:43.755Z,7.9
2019-03-15T13:30:45.298Z,7.9
2019-03-15T13:31:46.858Z,7.9
2019-03-15T13:32:48.092Z,7.9
2019-03-15T13:33:49.479Z,7.9
2019-03-15T13:34:51.151Z,7.9
2019-03-15T13:35:52.390Z,7.9
2019-03-15T13:36:53.811Z,7.9
2019-03-15T13:37:55.216Z,7.9
2019-03-15T13:38:56.841Z,7.9
2019-03-15T13:39:58.426Z,7.9
2019-03-15T13:41:00.009Z,7.9
2019-03-15T13:42:01.443Z,7.9
2019-03-15T13:43:02.847Z,7.9
2019-03-15T13:44:04.251Z,7.9
2019-03-15T13:45:05.753Z,7.9
2019-03-15T13:46:07.150Z,7.9
2019-03-15T13:47:08.705Z,7.9
2019-03-15T13:48:10.242Z,7.9
2019-03-15T13:49:11.803Z,7.9
2019-03-15T13:50:13.359Z,7.2
2019-03-15T13:51:14.926Z,7.2
2019-03-15T13:52:16.299Z,7.3
2019-03-15T13:53:17.864Z,7.4
2019-03-15T13:54:19.258Z,7.5
2019-03-15T13:55:20.828Z,7.6
2019-03-15T13:56:22.370Z,7.6
2019-03-15T13:57:23.789Z,7.7
2019-03-15T13:58:24.871Z,7.7
2019-03-15T13:59:26.473Z,7.8
2019-03-15T14:00:27.869Z,7.8
2019-03-15T14:01:29.253Z,7.8
2019-03-15T14:02:30.807Z,7.8
2019-03-15T14:03:32.229Z,7.9
2019-03-15T14:04:33.800Z,7.9
2019-03-15T14:05:35.190Z,7.9
2019-03-15T14:06:36.742Z,7.9
2019-03-15T14:07:38.358Z,7.9
2019-03-15T14:08:39.732Z,7.9
2019-03-15T14:09:41.157Z,7.9
2019-03-15T14:10:51.312Z,7.8
2019-03-15T14:11:52.824Z,7.8
2019-03-15T14:12:54.380Z,7.9
2019-03-15T14:13:55.991Z,7.9